createdAt,value
2018-02-05T00:00:45.320Z,1021.13
2018-02-05T00:01:45.329Z,1021.16
2018-02-05T00:02:45.343Z,1021.14
2018-02-05T00:03:45.346Z,1021.20
2018-02-05T00:04:45.366Z,1021.19
2018-02-05T00:05:45.368Z,1021.18
2018-02-05T00:06:45.375Z,1021.17
2018-02-05T00:07:45.389Z,1021.20
2018-02-05T00:08:45.394Z,1021.17
2018-02-05T00:09:45.404Z,1021.20
2018-02-05T00:10:45.428Z,1021.22
2018-02-05T00:11:45.431Z,1021.16
2018-02-05T00:12:45.443Z,1021.21
2018-02-05T00:13:45.456Z,1021.20
2018-02-05T00:14:45.457Z,1021.21
2018-02-05T00:15:45.474Z,1021.18
2018-02-05T00:16:45.479Z,1021.18
2018-02-05T00:17:45.492Z,1021.20
2018-02-05T00:18:45.499Z,1021.25
2018-02-05T00:19:45.508Z,1021.20
2018-02-05T00:20:45.521Z,1021.24
2018-02-05T00:21:45.526Z,1021.23
2018-02-05T00:22:45.531Z,1021.23
2018-02-05T00:23:45.545Z,1021.21
2018-02-05T00:24:45.546Z,1021.21
2018-02-05T00:25:45.560Z,1021.20
2018-02-05T00:26:45.569Z,1021.26
2018-02-05T00:27:45.588Z,1021.26
2018-02-05T00:28:45.600Z,1021.24
2018-02-05T00:29:45.613Z,1021.26
2018-02-05T00:30:45.617Z,1021.25
2018-02-05T00:31:45.626Z,1021.30
2018-02-05T00:32:45.630Z,1021.27
2018-02-05T00:33:45.638Z,1021.34
2018-02-05T00:34:45.656Z,1021.33
2018-02-05T00:35:45.706Z,1021.36
2018-02-05T00:36:45.666Z,1021.35
2018-02-05T00:37:45.676Z,1021.37
2018-02-05T00:38:45.686Z,1021.38
2018-02-05T00:39:45.693Z,1021.35
2018-02-05T00:40:45.711Z,1021.40
2018-02-05T00:41:45.720Z,1021.42
2018-02-05T00:42:45.736Z,1021.42
2018-02-05T00:43:45.748Z,1021.40
2018-02-05T00:44:45.748Z,1021.35
2018-02-05T00:45:45.758Z,1021.39
2018-02-05T00:46:45.770Z,1021.39
2018-02-05T00:47:45.780Z,1021.44
2018-02-05T00:48:45.792Z,1021.43
2018-02-05T00:49:45.801Z,1021.42
2018-02-05T00:50:45.807Z,1021.42
2018-02-05T00:51:45.819Z,1021.45
2018-02-05T00:52:45.822Z,1021.48
2018-02-05T00:53:45.833Z,1021.44
2018-02-05T00:54:45.844Z,1021.49
2018-02-05T00:55:45.848Z,1021.50
2018-02-05T00:56:45.863Z,1021.50
2018-02-05T00:57:45.888Z,1021.49
2018-02-05T00:58:45.887Z,1021.55
2018-02-05T00:59:45.901Z,1021.58
2018-02-05T01:00:45.909Z,1021.58
2018-02-05T01:01:45.916Z,1021.57
2018-02-05T01:02:45.928Z,1021.60
2018-02-05T01:03:45.934Z,1021.57
2018-02-05T01:04:45.943Z,1021.61
2018-02-05T01:05:45.951Z,1021.65
2018-02-05T01:06:45.957Z,1021.62
2018-02-05T01:07:45.973Z,1021.60
2018-02-05T01:08:45.978Z,1021.62
2018-02-05T01:09:45.984Z,1021.61
2018-02-05T01:10:45.999Z,1021.65
2018-02-05T01:11:46.017Z,1021.67
2018-02-05T01:12:46.031Z,1021.64
2018-02-05T01:13:46.038Z,1021.62
2018-02-05T01:14:46.042Z,1021.66
2018-02-05T01:15:46.058Z,1021.70
2018-02-05T01:16:46.058Z,1021.75
2018-02-05T01:17:46.069Z,1021.76
2018-02-05T01:18:46.087Z,1021.73
2018-02-05T01:19:46.092Z,1021.77
2018-02-05T01:20:46.101Z,1021.76
2018-02-05T01:21:46.109Z,1021.75
2018-02-05T01:22:46.116Z,1021.76
2018-02-05T01:23:46.142Z,1021.73
2018-02-05T01:24:46.146Z,1021.72
2018-02-05T01:25:46.153Z,1021.76
2018-02-05T01:26:46.168Z,1021.71
2018-02-05T01:27:46.172Z,1021.71
2018-02-05T01:28:46.182Z,1021.73
2018-02-05T01:29:46.195Z,1021.70
2018-02-05T01:30:46.202Z,1021.71
2018-02-05T01:31:46.210Z,1021.68
2018-02-05T01:32:46.216Z,1021.68
2018-02-05T01:33:46.227Z,1021.71
2018-02-05T01:34:46.249Z,1021.72
2018-02-05T01:35:46.256Z,1021.70
2018-02-05T01:36:46.271Z,1021.74
2018-02-05T01:37:46.275Z,1021.71
2018-02-05T01:38:46.284Z,1021.71
2018-02-05T01:39:46.294Z,1021.75
2018-02-05T01:40:46.300Z,1021.73
2018-02-05T01:41:46.308Z,1021.75
2018-02-05T01:42:46.321Z,1021.73
2018-02-05T01:43:46.323Z,1021.72
2018-02-05T01:44:46.336Z,1021.73
2018-02-05T01:45:46.349Z,1021.73
2018-02-05T01:46:46.369Z,1021.78
2018-02-05T01:47:46.377Z,1021.76
2018-02-05T01:48:46.384Z,1021.78
2018-02-05T01:49:46.405Z,1021.81
2018-02-05T01:50:46.408Z,1021.81
2018-02-05T01:51:46.407Z,1021.84
2018-02-05T01:52:46.426Z,1021.85
2018-02-05T01:53:46.432Z,1021.89
2018-02-05T01:54:46.434Z,1021.86
2018-02-05T01:55:46.464Z,1021.90
2018-02-05T01:56:46.452Z,1021.90
2018-02-05T01:57:46.461Z,1021.89
2018-02-05T01:58:46.487Z,1021.91
2018-02-05T01:59:46.498Z,1021.93
2018-02-05T02:00:46.508Z,1021.91
2018-02-05T02:01:46.519Z,1021.92
2018-02-05T02:02:46.519Z,1021.89
2018-02-05T02:03:46.530Z,1021.91
2018-02-05T02:04:46.590Z,1021.89
2018-02-05T02:05:46.548Z,1021.92
2018-02-05T02:06:46.557Z,1021.88
2018-02-05T02:07:46.568Z,1021.86
2018-02-05T02:08:46.591Z,1021.89
2018-02-05T02:09:46.603Z,1021.87
2018-02-05T02:10:46.604Z,1021.88
2018-02-05T02:11:46.616Z,1021.88
2018-02-05T02:12:46.622Z,1021.85
2018-02-05T02:13:46.629Z,1021.86
2018-02-05T02:14:46.645Z,1021.89
2018-02-05T02:15:46.651Z,1021.90
2018-02-05T02:16:46.659Z,1021.90
2018-02-05T02:17:46.980Z,1021.89
2018-02-05T02:18:46.685Z,1021.90
2018-02-05T02:19:46.700Z,1021.91
2018-02-05T02:20:46.704Z,1021.93
2018-02-05T02:21:46.714Z,1021.97
2018-02-05T02:22:46.981Z,1021.93
2018-02-05T02:23:46.732Z,1021.95
2018-02-05T02:24:46.742Z,1021.96
2018-02-05T02:25:46.752Z,1021.92
2018-02-05T02:26:46.772Z,1021.96
2018-02-05T02:27:46.788Z,1021.97
2018-02-05T02:28:46.786Z,1021.98
2018-02-05T02:29:46.801Z,1021.97
2018-02-05T02:30:46.813Z,1021.97
2018-02-05T02:31:46.816Z,1022.02
2018-02-05T02:32:46.828Z,1022.03
2018-02-05T02:33:46.836Z,1022.01
2018-02-05T02:34:46.844Z,1022.03
2018-02-05T02:35:46.865Z,1022.04
2018-02-05T02:36:46.870Z,1022.09
2018-02-05T02:37:46.886Z,1022.06
2018-02-05T02:38:46.893Z,1022.07
2018-02-05T02:39:46.901Z,1022.07
2018-02-05T02:40:46.912Z,1022.06
2018-02-05T02:41:46.920Z,1022.08
2018-02-05T02:42:46.926Z,1022.06
2018-02-05T02:43:46.936Z,1022.07
2018-02-05T02:44:46.960Z,1022.07
2018-02-05T02:45:46.969Z,1022.06
2018-02-05T02:46:46.976Z,1022.04
2018-02-05T02:47:46.985Z,1022.07
2018-02-05T02:48:46.991Z,1022.06
2018-02-05T02:49:47.011Z,1022.07
2018-02-05T02:50:47.011Z,1022.09
2018-02-05T02:51:47.020Z,1022.10
2018-02-05T02:52:47.035Z,1022.08
2018-02-05T02:53:47.054Z,1022.16
2018-02-05T02:54:47.056Z,1022.13
2018-02-05T02:55:47.068Z,1022.11
2018-02-05T02:56:47.072Z,1022.18
2018-02-05T02:57:47.082Z,1022.19
2018-02-05T02:58:47.095Z,1022.23
2018-02-05T02:59:47.102Z,1022.24
2018-02-05T03:00:47.149Z,1022.28
2018-02-05T03:01:47.120Z,1022.27
2018-02-05T03:02:47.139Z,1022.22
2018-02-05T03:03:47.143Z,1022.23
2018-02-05T03:04:47.150Z,1022.29
2018-02-05T03:05:47.156Z,1022.27
2018-02-05T03:06:47.184Z,1022.27
2018-02-05T03:07:47.219Z,1022.21
2018-02-05T03:08:47.195Z,1022.24
2018-02-05T03:09:47.210Z,1022.27
2018-02-05T03:10:47.209Z,1022.31
2018-02-05T03:11:47.239Z,1022.32
2018-02-05T03:12:47.229Z,1022.34
2018-02-05T03:13:47.238Z,1022.33
2018-02-05T03:14:47.255Z,1022.32
2018-02-05T03:15:47.256Z,1022.36
2018-02-05T03:16:47.283Z,1022.39
2018-02-05T03:17:47.294Z,1022.37
2018-02-05T03:18:47.295Z,1022.35
2018-02-05T03:19:47.310Z,1022.39
2018-02-05T03:20:47.324Z,1022.40
2018-02-05T03:21:47.319Z,1022.39
2018-02-05T03:22:47.334Z,1022.43
2018-02-05T03:23:47.339Z,1022.43
2018-02-05T03:24:47.352Z,1022.47
2018-02-05T03:25:47.362Z,1022.44
2018-02-05T03:26:47.368Z,1022.42
2018-02-05T03:27:47.378Z,1022.46
2018-02-05T03:28:47.394Z,1022.49
2018-02-05T03:29:47.420Z,1022.46
2018-02-05T03:30:47.417Z,1022.52
2018-02-05T03:31:47.420Z,1022.50
2018-02-05T03:32:47.441Z,1022.47
2018-02-05T03:33:47.443Z,1022.50
2018-02-05T03:34:47.454Z,1022.50
2018-02-05T03:35:47.463Z,1022.51
2018-02-05T03:36:47.470Z,1022.51
2018-02-05T03:37:47.481Z,1022.53
2018-02-05T03:38:47.516Z,1022.49
2018-02-05T03:39:47.506Z,1022.53
2018-02-05T03:40:47.524Z,1022.53
2018-02-05T03:41:47.526Z,1022.59
2018-02-05T03:42:47.533Z,1022.56
2018-02-05T03:43:47.547Z,1022.57
2018-02-05T03:44:47.551Z,1022.57
2018-02-05T03:45:47.560Z,1022.63
2018-02-05T03:46:47.575Z,1022.59
2018-02-05T03:47:47.580Z,1022.60
2018-02-05T03:48:47.594Z,1022.58
2018-02-05T03:49:47.603Z,1022.59
2018-02-05T03:50:47.605Z,1022.65
2018-02-05T03:51:47.634Z,1022.66
2018-02-05T03:52:47.636Z,1022.68
2018-02-05T03:53:47.648Z,1022.67
2018-02-05T03:54:47.657Z,1022.67
2018-02-05T03:55:47.661Z,1022.65
2018-02-05T03:56:47.677Z,1022.66
2018-02-05T03:57:47.686Z,1022.66
2018-02-05T03:58:47.687Z,1022.66
2018-02-05T03:59:47.705Z,1022.66
2018-02-05T04:00:47.707Z,1022.65
2018-02-05T04:01:47.715Z,1022.65
2018-02-05T04:02:47.730Z,1022.69
2018-02-05T04:03:47.745Z,1022.67
2018-02-05T04:04:47.759Z,1022.74
2018-02-05T04:05:47.768Z,1022.75
2018-02-05T04:06:47.773Z,1022.70
2018-02-05T04:07:47.783Z,1022.73
2018-02-05T04:08:47.787Z,1022.77
2018-02-05T04:09:47.801Z,1022.74
2018-02-05T04:10:47.815Z,1022.80
2018-02-05T04:11:47.817Z,1022.77
2018-02-05T04:12:47.830Z,1022.78
2018-02-05T04:13:47.842Z,1022.81
2018-02-05T04:14:47.844Z,1022.79
2018-02-05T04:15:47.855Z,1022.78
2018-02-05T04:16:47.865Z,1022.77
2018-02-05T04:17:47.869Z,1022.76
2018-02-05T04:18:47.882Z,1022.78
2018-02-05T04:19:47.903Z,1022.76
2018-02-05T04:20:47.914Z,1022.82
2018-02-05T04:21:47.920Z,1022.81
2018-02-05T04:22:47.929Z,1022.80
2018-02-05T04:23:47.940Z,1022.83
2018-02-05T04:24:47.944Z,1022.89
2018-02-05T04:25:47.953Z,1022.81
2018-02-05T04:26:47.968Z,1022.87
2018-02-05T04:27:47.974Z,1022.86
2018-02-05T04:28:47.986Z,1022.84
2018-02-05T04:29:47.996Z,1022.87
2018-02-05T04:30:47.996Z,1022.84
2018-02-05T04:31:48.010Z,1022.88
2018-02-05T04:32:48.028Z,1022.89
2018-02-05T04:33:48.025Z,1022.89
2018-02-05T04:34:48.042Z,1022.90
2018-02-05T04:35:48.044Z,1022.91
2018-02-05T04:36:48.072Z,1022.92
2018-02-05T04:37:48.077Z,1022.92
2018-02-05T04:38:48.081Z,1022.94
2018-02-05T04:39:48.098Z,1022.94
2018-02-05T04:40:48.100Z,1022.95
2018-02-05T04:41:48.106Z,1023.02
2018-02-05T04:42:48.123Z,1023.02
2018-02-05T04:43:48.126Z,1023.04
2018-02-05T04:44:48.143Z,1023.05
2018-02-05T04:45:48.150Z,1023.04
2018-02-05T04:46:48.154Z,1023.04
2018-02-05T04:47:48.164Z,1023.00
2018-02-05T04:48:48.173Z,1023.04
2018-02-05T04:49:48.178Z,1023.06
2018-02-05T04:50:48.205Z,1023.05
2018-02-05T04:51:48.202Z,1023.07
2018-02-05T04:52:48.208Z,1023.10
2018-02-05T04:53:48.219Z,1023.05
2018-02-05T04:54:48.230Z,1023.04
2018-02-05T04:55:48.284Z,1023.02
2018-02-05T04:56:48.243Z,1023.05
2018-02-05T04:57:48.257Z,1023.08
2018-02-05T04:58:48.257Z,1023.11
2018-02-05T04:59:48.272Z,1023.13
2018-02-05T05:00:48.278Z,1023.16
2018-02-05T05:01:48.287Z,1023.21
2018-02-05T05:02:48.300Z,1023.22
2018-02-05T05:03:48.301Z,1023.18
2018-02-05T05:04:48.318Z,1023.16
2018-02-05T05:05:48.328Z,1023.14
2018-02-05T05:06:48.329Z,1023.15
2018-02-05T05:07:48.342Z,1023.14
2018-02-05T05:08:48.347Z,1023.13
2018-02-05T05:09:48.360Z,1023.13
2018-02-05T05:10:48.369Z,1023.16
2018-02-05T05:11:48.388Z,1023.17
2018-02-05T05:12:48.403Z,1023.19
2018-02-05T05:13:48.402Z,1023.20
2018-02-05T05:14:48.416Z,1023.22
2018-02-05T05:15:48.428Z,1023.21
2018-02-05T05:16:48.436Z,1023.23
2018-02-05T05:17:48.439Z,1023.17
2018-02-05T05:18:48.452Z,1023.16
2018-02-05T05:19:48.462Z,1023.19
2018-02-05T05:20:48.475Z,1023.16
2018-02-05T05:21:48.493Z,1023.18
2018-02-05T05:22:48.488Z,1023.19
2018-02-05T05:23:48.500Z,1023.20
2018-02-05T05:24:48.502Z,1023.18
2018-02-05T05:25:48.513Z,1023.18
2018-02-05T05:26:48.525Z,1023.20
2018-02-05T05:27:48.529Z,1023.21
2018-02-05T05:28:48.545Z,1023.23
2018-02-05T05:29:48.549Z,1023.27
2018-02-05T05:30:48.544Z,1023.24
2018-02-05T05:31:48.583Z,1023.20
2018-02-05T05:32:48.575Z,1023.24
2018-02-05T05:33:48.582Z,1023.21
2018-02-05T05:34:48.612Z,1023.20
2018-02-05T05:35:48.617Z,1023.15
2018-02-05T05:36:48.611Z,1023.17
2018-02-05T05:37:48.615Z,1023.15
2018-02-05T05:38:48.613Z,1023.22
2018-02-05T05:39:48.627Z,1023.22
2018-02-05T05:40:48.632Z,1023.25
2018-02-05T05:41:48.646Z,1023.22
2018-02-05T05:42:48.656Z,1023.28
2018-02-05T05:43:48.662Z,1023.28
2018-02-05T05:44:48.673Z,1023.30
2018-02-05T05:45:48.682Z,1023.27
2018-02-05T05:46:48.689Z,1023.31
2018-02-05T05:47:48.697Z,1023.29
2018-02-05T05:48:48.702Z,1023.33
2018-02-05T05:49:48.716Z,1023.29
2018-02-05T05:50:48.727Z,1023.35
2018-02-05T05:51:48.731Z,1023.35
2018-02-05T05:52:48.747Z,1023.38
2018-02-05T05:53:48.753Z,1023.37
2018-02-05T05:54:48.760Z,1023.37
2018-02-05T05:55:48.774Z,1023.38
2018-02-05T05:56:48.775Z,1023.40
2018-02-05T05:57:48.785Z,1023.42
2018-02-05T05:58:48.798Z,1023.39
2018-02-05T05:59:48.804Z,1023.41
2018-02-05T06:00:48.817Z,1023.45
2018-02-05T06:01:48.823Z,1023.45
2018-02-05T06:02:48.832Z,1023.46
2018-02-05T06:03:48.840Z,1023.43
2018-02-05T06:04:48.844Z,1023.46
2018-02-05T06:05:48.854Z,1023.45
2018-02-05T06:06:48.868Z,1023.43
2018-02-05T06:07:48.872Z,1023.42
2018-02-05T06:08:48.890Z,1023.44
2018-02-05T06:09:48.897Z,1023.46
2018-02-05T06:10:48.899Z,1023.44
2018-02-05T06:11:48.913Z,1023.45
2018-02-05T06:12:48.920Z,1023.44
2018-02-05T06:13:48.930Z,1023.49
2018-02-05T06:14:48.944Z,1023.54
2018-02-05T06:15:48.948Z,1023.54
2018-02-05T06:16:48.954Z,1023.55
2018-02-05T06:17:48.964Z,1023.51
2018-02-05T06:18:48.967Z,1023.54
2018-02-05T06:19:48.984Z,1023.55
2018-02-05T06:20:48.991Z,1023.55
2018-02-05T06:21:48.997Z,1023.56
2018-02-05T06:22:49.011Z,1023.59
2018-02-05T06:23:49.013Z,1023.60
2018-02-05T06:24:49.039Z,1023.63
2018-02-05T06:25:49.024Z,1023.62
2018-02-05T06:26:49.042Z,1023.60
2018-02-05T06:27:49.044Z,1023.63
2018-02-05T06:28:49.071Z,1023.60
2018-02-05T06:29:49.054Z,1023.65
2018-02-05T06:30:49.068Z,1023.66
2018-02-05T06:31:49.075Z,1023.67
2018-02-05T06:32:49.088Z,1023.70
2018-02-05T06:33:49.098Z,1023.66
2018-02-05T06:34:49.102Z,1023.65
2018-02-05T06:35:49.111Z,1023.71
2018-02-05T06:36:49.122Z,1023.73
2018-02-05T06:37:49.126Z,1023.69
2018-02-05T06:38:49.144Z,1023.74
2018-02-05T06:39:49.147Z,1023.74
2018-02-05T06:40:49.158Z,1023.77
2018-02-05T06:41:49.171Z,1023.80
2018-02-05T06:42:49.176Z,1023.77
2018-02-05T06:43:49.189Z,1023.80
2018-02-05T06:44:49.193Z,1023.82
2018-02-05T06:45:49.204Z,1023.82
2018-02-05T06:46:49.213Z,1023.81
2018-02-05T06:47:49.218Z,1023.86
2018-02-05T06:48:49.228Z,1023.86
2018-02-05T06:49:49.239Z,1023.90
2018-02-05T06:50:49.243Z,1023.92
2018-02-05T06:51:49.256Z,1023.92
2018-02-05T06:52:49.260Z,1023.91
2018-02-05T06:53:49.301Z,1023.89
2018-02-05T06:54:49.283Z,1023.95
2018-02-05T06:55:49.287Z,1023.98
2018-02-05T06:56:49.299Z,1023.98
2018-02-05T06:57:49.310Z,1023.97
2018-02-05T06:58:49.317Z,1023.95
2018-02-05T06:59:49.323Z,1023.98
2018-02-05T07:00:49.344Z,1023.94
2018-02-05T07:01:49.342Z,1023.98
2018-02-05T07:02:49.354Z,1023.96
2018-02-05T07:03:49.362Z,1023.97
2018-02-05T07:04:49.370Z,1023.97
2018-02-05T07:05:49.380Z,1023.98
2018-02-05T07:06:49.389Z,1023.96
2018-02-05T07:07:49.405Z,1023.93
2018-02-05T07:08:49.410Z,1023.96
2018-02-05T07:09:49.419Z,1023.96
2018-02-05T07:10:49.416Z,1023.96
2018-02-05T07:11:49.433Z,1024.00
2018-02-05T07:12:49.428Z,1023.98
2018-02-05T07:13:49.435Z,1023.99
2018-02-05T07:14:49.453Z,1024.01
2018-02-05T07:15:49.453Z,1023.98
2018-02-05T07:16:49.467Z,1024.00
2018-02-05T07:17:49.476Z,1024.00
2018-02-05T07:18:49.493Z,1023.99
2018-02-05T07:19:49.491Z,1023.97
2018-02-05T07:20:49.513Z,1023.93
2018-02-05T07:21:49.516Z,1023.98
2018-02-05T07:22:49.540Z,1024.00
2018-02-05T07:23:49.531Z,1024.02
2018-02-05T07:24:49.559Z,1024.01
2018-02-05T07:25:49.546Z,1024.07
2018-02-05T07:26:49.551Z,1024.13
2018-02-05T07:27:49.565Z,1024.11
2018-02-05T07:28:49.570Z,1024.15
2018-02-05T07:29:49.575Z,1024.11
2018-02-05T07:30:49.592Z,1024.17
2018-02-05T07:31:49.598Z,1024.14
2018-02-05T07:32:49.622Z,1024.14
2018-02-05T07:33:49.616Z,1024.20
2018-02-05T07:34:49.620Z,1024.16
2018-02-05T07:35:49.634Z,1024.22
2018-02-05T07:36:49.642Z,1024.27
2018-02-05T07:37:49.648Z,1024.24
2018-02-05T07:38:49.660Z,1024.20
2018-02-05T07:39:49.668Z,1024.22
2018-02-05T07:40:49.677Z,1024.26
2018-02-05T07:41:49.686Z,1024.25
2018-02-05T07:42:49.690Z,1024.28
2018-02-05T07:43:49.706Z,1024.29
2018-02-05T07:44:49.710Z,1024.27
2018-02-05T07:45:49.721Z,1024.26
2018-02-05T07:46:49.732Z,1024.24
2018-02-05T07:47:49.740Z,1024.21
2018-02-05T07:48:49.754Z,1024.23
2018-02-05T07:49:49.761Z,1024.21
2018-02-05T07:50:49.778Z,1024.22
2018-02-05T07:51:49.792Z,1024.29
2018-02-05T07:52:49.792Z,1024.29
2018-02-05T07:53:49.807Z,1024.27
2018-02-05T07:54:49.817Z,1024.29
2018-02-05T07:55:49.820Z,1024.25
2018-02-05T07:56:49.834Z,1024.24
2018-02-05T07:57:49.843Z,1024.21
2018-02-05T07:58:49.852Z,1024.27
2018-02-05T07:59:49.863Z,1024.27
2018-02-05T08:00:49.866Z,1024.28
2018-02-05T08:01:49.871Z,1024.24
2018-02-05T08:02:49.885Z,1024.24
2018-02-05T08:03:49.892Z,1024.29
2018-02-05T08:04:49.909Z,1024.32
2018-02-05T08:05:49.916Z,1024.30
2018-02-05T08:06:49.931Z,1024.34
2018-02-05T08:07:49.944Z,1024.37
2018-02-05T08:08:49.950Z,1024.37
2018-02-05T08:09:49.955Z,1024.33
2018-02-05T08:10:49.972Z,1024.35
2018-02-05T08:11:49.978Z,1024.34
2018-02-05T08:12:49.992Z,1024.41
2018-02-05T08:13:49.999Z,1024.43
2018-02-05T08:14:50.002Z,1024.43
2018-02-05T08:15:50.019Z,1024.42
2018-02-05T08:16:50.018Z,1024.44
2018-02-05T08:17:50.043Z,1024.43
2018-02-05T08:18:50.041Z,1024.39
2018-02-05T08:19:50.058Z,1024.36
2018-02-05T08:20:50.072Z,1024.39
2018-02-05T08:21:50.084Z,1024.37
2018-02-05T08:22:50.088Z,1024.36
2018-02-05T08:23:50.098Z,1024.38
2018-02-05T08:24:50.103Z,1024.41
2018-02-05T08:25:50.114Z,1024.42
2018-02-05T08:26:50.129Z,1024.46
2018-02-05T08:27:50.134Z,1024.44
2018-02-05T08:28:50.142Z,1024.42
2018-02-05T08:29:50.152Z,1024.42
2018-02-05T08:30:50.168Z,1024.44
2018-02-05T08:31:50.208Z,1024.44
2018-02-05T08:32:50.187Z,1024.41
2018-02-05T08:33:50.197Z,1024.43
2018-02-05T08:34:50.213Z,1024.42
2018-02-05T08:35:50.213Z,1024.42
2018-02-05T08:36:50.229Z,1024.46
2018-02-05T08:37:50.237Z,1024.50
2018-02-05T08:38:50.253Z,1024.48
2018-02-05T08:39:50.265Z,1024.52
2018-02-05T08:40:50.275Z,1024.49
2018-02-05T08:41:50.279Z,1024.45
2018-02-05T08:42:50.298Z,1024.47
2018-02-05T08:43:50.301Z,1024.44
2018-02-05T08:44:50.323Z,1024.45
2018-02-05T08:45:50.323Z,1024.41
2018-02-05T08:46:50.339Z,1024.44
2018-02-05T08:47:50.378Z,1024.39
2018-02-05T08:48:50.358Z,1024.43
2018-02-05T08:49:50.361Z,1024.44
2018-02-05T08:50:50.375Z,1024.43
2018-02-05T08:51:50.382Z,1024.42
2018-02-05T08:52:50.393Z,1024.43
2018-02-05T08:53:50.412Z,1024.42
2018-02-05T08:54:50.418Z,1024.40
2018-02-05T08:55:50.437Z,1024.39
2018-02-05T08:56:50.438Z,1024.40
2018-02-05T08:57:50.451Z,1024.35
2018-02-05T08:58:50.460Z,1024.42
2018-02-05T08:59:50.480Z,1024.41
2018-02-05T09:00:50.488Z,1024.42
2018-02-05T09:01:50.501Z,1024.41
2018-02-05T09:02:50.507Z,1024.45
2018-02-05T09:03:50.517Z,1024.45
2018-02-05T09:04:50.522Z,1024.41
2018-02-05T09:05:50.544Z,1024.46
2018-02-05T09:06:50.556Z,1024.46
2018-02-05T09:07:50.567Z,1024.46
2018-02-05T09:08:50.570Z,1024.43
2018-02-05T09:09:50.580Z,1024.43
2018-02-05T09:10:50.604Z,1024.43
2018-02-05T09:11:50.613Z,1024.46
2018-02-05T09:12:50.619Z,1024.43
2018-02-05T09:13:50.634Z,1024.43
2018-02-05T09:14:50.637Z,1024.45
2018-02-05T09:15:50.660Z,1024.49
2018-02-05T09:16:50.670Z,1024.53
2018-02-05T09:17:50.674Z,1024.53
2018-02-05T09:18:50.688Z,1024.54
2018-02-05T09:19:50.695Z,1024.50
2018-02-05T09:20:50.728Z,1024.51
2018-02-05T09:21:50.726Z,1024.52
2018-02-05T09:22:50.730Z,1024.50
2018-02-05T09:23:50.748Z,1024.50
2018-02-05T09:24:50.750Z,1024.49
2018-02-05T09:25:50.782Z,1024.49
2018-02-05T09:26:50.782Z,1024.52
2018-02-05T09:27:50.795Z,1024.53
2018-02-05T09:28:50.803Z,1024.53
2018-02-05T09:29:50.828Z,1024.52
2018-02-05T09:30:50.828Z,1024.48
2018-02-05T09:31:50.845Z,1024.50
2018-02-05T09:32:50.846Z,1024.47
2018-02-05T09:33:50.859Z,1024.46
2018-02-05T09:34:50.878Z,1024.43
2018-02-05T09:35:50.885Z,1024.48
2018-02-05T09:36:50.897Z,1024.47
2018-02-05T09:37:50.907Z,1024.46
2018-02-05T09:38:50.928Z,1024.44
2018-02-05T09:39:50.940Z,1024.43
2018-02-05T09:40:50.942Z,1024.46
2018-02-05T09:41:50.951Z,1024.53
2018-02-05T09:42:50.977Z,1024.50
2018-02-05T09:43:50.982Z,1024.50
2018-02-05T09:44:50.992Z,1024.50
2018-02-05T09:45:51.005Z,1024.51
2018-02-05T09:46:51.011Z,1024.53
2018-02-05T09:47:51.020Z,1024.48
2018-02-05T09:48:51.038Z,1024.48
2018-02-05T09:49:51.048Z,1024.49
2018-02-05T09:50:51.062Z,1024.47
2018-02-05T09:51:51.063Z,1024.45
2018-02-05T09:52:51.132Z,1024.46
2018-02-05T09:53:51.089Z,1024.41
2018-02-05T09:54:51.095Z,1024.42
2018-02-05T09:55:51.117Z,1024.40
2018-02-05T09:56:51.119Z,1024.39
2018-02-05T09:57:51.129Z,1024.41
2018-02-05T09:58:51.146Z,1024.35
2018-02-05T09:59:51.165Z,1024.39
2018-02-05T10:00:51.162Z,1024.37
2018-02-05T10:01:51.171Z,1024.39
2018-02-05T10:02:51.188Z,1024.37
2018-02-05T10:03:51.201Z,1024.40
2018-02-05T10:04:51.202Z,1024.40
2018-02-05T10:05:51.216Z,1024.40
2018-02-05T10:06:51.225Z,1024.42
2018-02-05T10:07:51.232Z,1024.41
2018-02-05T10:08:51.246Z,1024.36
2018-02-05T10:09:51.258Z,1024.39
2018-02-05T10:10:51.259Z,1024.36
2018-02-05T10:11:51.285Z,1024.35
2018-02-05T10:12:51.292Z,1024.32
2018-02-05T10:13:51.298Z,1024.31
2018-02-05T10:14:51.309Z,1024.35
2018-02-05T10:15:51.317Z,1024.33
2018-02-05T10:16:51.356Z,1024.38
2018-02-05T10:17:51.350Z,1024.35
2018-02-05T10:18:51.343Z,1024.32
2018-02-05T10:19:51.353Z,1024.32
2018-02-05T10:20:51.375Z,1024.28
2018-02-05T10:21:51.379Z,1024.32
2018-02-05T10:22:51.398Z,1024.30
2018-02-05T10:23:51.404Z,1024.32
2018-02-05T10:24:51.416Z,1024.28
2018-02-05T10:25:51.422Z,1024.27
2018-02-05T10:26:51.424Z,1024.32
2018-02-05T10:27:51.442Z,1024.28
2018-02-05T10:28:51.443Z,1024.29
2018-02-05T10:29:51.453Z,1024.30
2018-02-05T10:30:51.479Z,1024.31
2018-02-05T10:31:51.481Z,1024.30
2018-02-05T10:32:51.494Z,1024.29
2018-02-05T10:33:51.503Z,1024.32
2018-02-05T10:34:51.508Z,1024.31
2018-02-05T10:35:51.522Z,1024.27
2018-02-05T10:36:51.531Z,1024.27
2018-02-05T10:37:51.539Z,1024.29
2018-02-05T10:38:51.551Z,1024.28
2018-02-05T10:39:51.564Z,1024.34
2018-02-05T10:40:51.579Z,1024.30
2018-02-05T10:41:51.586Z,1024.38
2018-02-05T10:42:51.590Z,1024.39
2018-02-05T10:43:51.604Z,1024.44
2018-02-05T10:44:51.608Z,1024.39
2018-02-05T10:45:51.618Z,1024.35
2018-02-05T10:46:51.634Z,1024.37
2018-02-05T10:47:51.638Z,1024.39
2018-02-05T10:48:51.698Z,1024.42
2018-02-05T10:49:51.672Z,1024.39
2018-02-05T10:50:51.680Z,1024.42
2018-02-05T10:51:51.688Z,1024.40
2018-02-05T10:52:51.697Z,1024.37
2018-02-05T10:53:51.707Z,1024.40
2018-02-05T10:54:51.718Z,1024.36
2018-02-05T10:55:51.722Z,1024.36
2018-02-05T10:56:51.749Z,1024.39
2018-02-05T10:57:51.754Z,1024.42
2018-02-05T10:58:51.760Z,1024.42
2018-02-05T10:59:51.773Z,1024.47
2018-02-05T11:00:51.787Z,1024.39
2018-02-05T11:01:51.790Z,1024.36
2018-02-05T11:02:51.801Z,1024.37
2018-02-05T11:03:51.821Z,1024.38
2018-02-05T11:04:51.832Z,1024.32
2018-02-05T11:05:51.836Z,1024.31
2018-02-05T11:06:51.845Z,1024.32
2018-02-05T11:07:51.858Z,1024.36
2018-02-05T11:08:51.875Z,1024.38
2018-02-05T11:09:51.885Z,1024.33
2018-02-05T11:10:51.896Z,1024.38
2018-02-05T11:11:51.899Z,1024.33
2018-02-05T11:12:51.929Z,1024.33
2018-02-05T11:13:51.939Z,1024.32
2018-02-05T11:14:51.938Z,1024.30
2018-02-05T11:15:51.946Z,1024.35
2018-02-05T11:16:51.974Z,1024.33
2018-02-05T11:17:51.987Z,1024.32
2018-02-05T11:18:51.987Z,1024.35
2018-02-05T11:19:52.005Z,1024.37
2018-02-05T11:20:52.010Z,1024.37
2018-02-05T11:21:52.029Z,1024.33
2018-02-05T11:22:52.044Z,1024.32
2018-02-05T11:23:52.044Z,1024.29
2018-02-05T11:24:52.068Z,1024.32
2018-02-05T11:25:52.085Z,1024.30
2018-02-05T11:26:52.083Z,1024.25
2018-02-05T11:27:52.098Z,1024.23
2018-02-05T11:28:52.118Z,1024.25
2018-02-05T11:29:52.124Z,1024.24
2018-02-05T11:30:52.137Z,1024.24
2018-02-05T11:31:52.141Z,1024.24
2018-02-05T11:32:52.170Z,1024.18
2018-02-05T11:33:52.177Z,1024.11
2018-02-05T11:34:52.187Z,1024.12
2018-02-05T11:35:52.211Z,1024.15
2018-02-05T11:36:52.212Z,1024.09
2018-02-05T11:37:52.218Z,1024.03
2018-02-05T11:38:52.230Z,1024.06
2018-02-05T11:39:52.250Z,1024.05
2018-02-05T11:40:52.275Z,1024.08
2018-02-05T11:41:52.273Z,1024.01
2018-02-05T11:42:52.277Z,1024.02
2018-02-05T11:43:52.306Z,1023.97
2018-02-05T11:44:52.310Z,1023.96
2018-02-05T11:45:52.318Z,1023.95
2018-02-05T11:46:52.341Z,1023.96
2018-02-05T11:47:52.345Z,1023.93
2018-02-05T11:48:52.356Z,1023.93
2018-02-05T11:49:52.381Z,1023.90
2018-02-05T11:50:52.384Z,1023.90
2018-02-05T11:51:52.398Z,1023.93
2018-02-05T11:52:52.415Z,1023.90
2018-02-05T11:53:52.427Z,1023.88
2018-02-05T11:54:52.439Z,1023.88
2018-02-05T11:55:52.441Z,1023.89
2018-02-05T11:56:52.465Z,1023.86
2018-02-05T11:57:52.475Z,1023.88
2018-02-05T11:58:52.488Z,1023.80
2018-02-05T11:59:52.508Z,1023.84
2018-02-05T12:00:52.514Z,1023.84
2018-02-05T12:01:52.527Z,1023.77
2018-02-05T12:02:52.535Z,1023.82
2018-02-05T12:03:52.552Z,1023.77
2018-02-05T12:04:52.565Z,1023.74
2018-02-05T12:05:52.577Z,1023.72